Time;durP1;ratioP1;P1;durP2;ratioP2;P2;SDS_P1;SDS_P2;PMS_P1;PMS_P2;Temp;Humidity;BMP_temperature;BMP_pressure;BME280_temperature;BME280_humidity;BME280_pressure;Samples;Min_cycle;Max_cycle;Signal;HPM_P1;HPM_P2
2023/12/18 00:00:17;;;;;;;18.63;4.28;;;8.40;99.90;;;;;;4996418;28;20200;-63
2023/12/18 00:02:44;;;;;;;20.70;4.80;;;8.40;99.90;;;;;;4995525;28;20146;-63
2023/12/18 00:05:09;;;;;;;19.77;4.45;;;8.40;99.90;;;;;;4993758;28;20531;-64
2023/12/18 00:07:35;;;;;;;17.20;3.78;;;8.40;99.90;;;;;;4995551;28;20045;-64
2023/12/18 00:10:01;;;;;;;22.90;4.85;;;8.40;99.90;;;;;;4998814;28;20853;-63
2023/12/18 00:12:26;;;;;;;16.20;5.15;;;8.40;99.90;;;;;;5002800;28;20398;-63
2023/12/18 00:14:52;;;;;;;14.93;3.63;;;8.40;99.90;;;;;;5004521;28;20590;-63
2023/12/18 00:17:18;;;;;;;11.85;3.28;;;8.40;99.90;;;;;;4986915;28;20140;-63
2023/12/18 00:19:44;;;;;;;24.77;5.43;;;8.40;99.90;;;;;;5003884;28;20057;-63
2023/12/18 00:22:09;;;;;;;22.95;4.43;;;8.40;99.90;;;;;;5002922;28;20552;-63
2023/12/18 00:24:35;;;;;;;21.42;5.75;;;8.40;99.90;;;;;;5003483;28;20045;-63
2023/12/18 00:27:01;;;;;;;16.98;4.60;;;8.40;99.90;;;;;;5004439;28;20042;-64
2023/12/18 00:29:27;;;;;;;19.42;3.97;;;8.40;99.90;;;;;;5003562;28;20551;-64
2023/12/18 00:31:53;;;;;;;17.83;4.20;;;8.40;99.90;;;;;;4999556;28;20148;-64
2023/12/18 00:34:18;;;;;;;11.93;2.90;;;8.40;99.90;;;;;;4998741;28;20177;-64
2023/12/18 00:36:45;;;;;;;13.60;4.45;;;8.40;99.90;;;;;;5003850;28;20510;-63
2023/12/18 00:39:15;;;;;;;20.77;5.20;;;8.40;99.90;;;;;;5005013;28;20050;-63
2023/12/18 00:41:41;;;;;;;25.27;5.20;;;8.50;99.90;;;;;;5003519;28;20041;-63
2023/12/18 00:44:07;;;;;;;15.90;4.38;;;8.50;99.90;;;;;;4984626;28;20050;-64
2023/12/18 00:46:33;;;;;;;11.65;3.72;;;8.50;99.90;;;;;;5003261;28;20124;-63
2023/12/18 00:48:58;;;;;;;20.35;4.70;;;8.50;99.90;;;;;;4970771;28;20096;-63
2023/12/18 00:51:24;;;;;;;15.32;3.75;;;8.50;99.90;;;;;;5002113;28;20042;-64
2023/12/18 00:53:50;;;;;;;12.55;4.03;;;8.50;99.90;;;;;;5002091;28;20548;-63
2023/12/18 00:56:15;;;;;;;10.35;3.22;;;8.50;99.90;;;;;;5004074;28;20088;-63
2023/12/18 00:58:41;;;;;;;16.15;4.55;;;8.60;99.90;;;;;;5003244;28;20053;-63
2023/12/18 01:01:07;;;;;;;10.27;3.60;;;8.50;99.90;;;;;;4999879;28;20037;-64
2023/12/18 01:03:32;;;;;;;7.80;3.05;;;8.50;99.90;;;;;;5000330;28;20054;-64
2023/12/18 01:05:58;;;;;;;20.65;4.15;;;8.50;99.90;;;;;;5003936;28;20048;-64
2023/12/18 01:08:24;;;;;;;15.13;3.67;;;8.50;99.90;;;;;;4989343;28;20046;-64
2023/12/18 01:10:51;;;;;;;18.10;4.20;;;8.60;99.90;;;;;;4985871;28;20440;-63
2023/12/18 01:13:16;;;;;;;15.40;3.95;;;8.50;99.90;;;;;;5003955;28;20440;-63
2023/12/18 01:15:42;;;;;;;13.60;2.55;;;8.50;99.90;;;;;;4983915;28;20381;-64
2023/12/18 01:18:08;;;;;;;14.80;4.07;;;8.60;99.90;;;;;;4982425;28;20054;-63
2023/12/18 01:20:34;;;;;;;18.38;4.35;;;8.60;99.90;;;;;;4992439;28;20061;-63
2023/12/18 01:22:59;;;;;;;30.00;4.88;;;8.60;99.90;;;;;;5004039;28;20100;-64
2023/12/18 01:25:25;;;;;;;21.40;4.10;;;8.60;99.90;;;;;;5002132;28;20091;-63
2023/12/18 01:27:53;;;;;;;12.05;3.03;;;8.60;99.90;;;;;;5003757;28;20034;-64
2023/12/18 01:30:18;;;;;;;14.23;3.25;;;8.60;99.90;;;;;;4985310;28;20057;-63
2023/12/18 01:32:45;;;;;;;14.25;4.07;;;8.60;99.90;;;;;;5003752;28;20504;-63
2023/12/18 01:35:11;;;;;;;15.30;3.85;;;8.60;99.90;;;;;;5001591;28;20052;-63
2023/12/18 01:37:37;;;;;;;8.48;3.03;;;8.60;99.90;;;;;;4985323;28;20037;-64
2023/12/18 01:40:03;;;;;;;17.40;3.45;;;8.60;99.90;;;;;;5007642;28;20105;-63
2023/12/18 01:42:29;;;;;;;15.00;4.00;;;8.60;99.90;;;;;;5007141;28;20044;-63
2023/12/18 01:44:54;;;;;;;18.13;3.70;;;8.60;99.90;;;;;;5007239;28;20056;-64
2023/12/18 01:47:20;;;;;;;22.10;4.75;;;8.60;99.90;;;;;;5006171;28;20041;-63
2023/12/18 01:49:46;;;;;;;15.65;3.47;;;8.60;99.90;;;;;;5007657;28;20054;-63
2023/12/18 01:52:12;;;;;;;19.60;4.65;;;8.50;99.90;;;;;;5007248;28;20384;-63
2023/12/18 01:54:38;;;;;;;14.65;3.85;;;8.60;99.90;;;;;;5006417;28;20501;-63
2023/12/18 01:57:05;;;;;;;11.98;3.72;;;8.60;99.90;;;;;;5006964;28;20060;-63
2023/12/18 01:59:32;;;;;;;14.98;3.63;;;8.50;99.90;;;;;;5005149;28;20077;-64
2023/12/18 02:01:59;;;;;;;16.05;4.20;;;8.50;99.90;;;;;;5007224;28;20088;-63
2023/12/18 02:04:26;;;;;;;14.25;4.10;;;8.60;99.90;;;;;;5006768;28;20101;-64
2023/12/18 02:06:52;;;;;;;8.05;3.22;;;8.60;99.90;;;;;;5006765;28;20084;-63
2023/12/18 02:09:18;;;;;;;15.45;3.65;;;8.50;99.90;;;;;;4988295;28;20129;-64
2023/12/18 02:11:44;;;;;;;16.88;3.28;;;8.60;99.90;;;;;;5006361;28;20116;-63
2023/12/18 02:14:11;;;;;;;11.85;2.95;;;8.60;99.90;;;;;;4989033;28;20109;-64
2023/12/18 02:16:37;;;;;;;14.10;3.33;;;8.60;99.90;;;;;;5004982;28;20048;-63
2023/12/18 02:19:03;;;;;;;11.25;3.38;;;8.50;99.90;;;;;;5001515;28;20065;-63
2023/12/18 02:21:29;;;;;;;18.33;4.05;;;8.50;99.90;;;;;;5006037;28;20356;-63
2023/12/18 02:23:55;;;;;;;24.27;4.18;;;8.50;99.90;;;;;;4985723;28;20559;-64
2023/12/18 02:26:21;;;;;;;15.98;3.70;;;8.60;99.90;;;;;;5007362;28;20308;-63
2023/12/18 02:28:47;;;;;;;10.65;3.20;;;8.50;99.90;;;;;;5001936;28;20042;-63
2023/12/18 02:31:14;;;;;;;17.20;4.28;;;8.50;99.90;;;;;;5005977;28;20081;-64
2023/12/18 02:33:40;;;;;;;17.88;3.40;;;8.50;99.90;;;;;;4997590;28;20049;-64
2023/12/18 02:36:07;;;;;;;14.65;3.35;;;8.50;99.90;;;;;;4995071;28;20061;-64
2023/12/18 02:38:33;;;;;;;17.77;3.60;;;8.50;99.90;;;;;;5005812;28;20177;-63
2023/12/18 02:40:59;;;;;;;11.98;3.22;;;8.60;99.90;;;;;;5006857;28;20105;-64
2023/12/18 02:43:25;;;;;;;15.77;3.25;;;8.50;99.90;;;;;;4987631;28;20722;-63
2023/12/18 02:45:51;;;;;;;20.08;3.38;;;8.50;99.90;;;;;;5005176;28;20428;-63
2023/12/18 02:48:16;;;;;;;13.15;3.00;;;8.50;99.90;;;;;;5002952;28;20045;-63
2023/12/18 02:50:42;;;;;;;19.73;4.13;;;8.60;99.90;;;;;;5004231;28;20104;-63
2023/12/18 02:53:08;;;;;;;17.85;3.30;;;8.50;99.90;;;;;;4988417;28;20430;-64
2023/12/18 02:55:34;;;;;;;16.42;3.53;;;8.60;99.90;;;;;;5003822;28;20045;-64
2023/12/18 02:58:00;;;;;;;15.57;3.25;;;8.50;99.90;;;;;;5004748;28;20045;-63
2023/12/18 03:00:26;;;;;;;11.18;2.95;;;8.50;99.90;;;;;;5004916;28;20045;-64
2023/12/18 03:02:51;;;;;;;17.98;3.25;;;8.50;99.90;;;;;;5004827;28;20085;-64
2023/12/18 03:05:17;;;;;;;18.63;3.30;;;8.60;99.90;;;;;;5005360;28;20053;-63
2023/12/18 03:07:43;;;;;;;23.67;3.33;;;8.60;99.90;;;;;;5004130;28;20038;-63
2023/12/18 03:10:08;;;;;;;16.13;3.25;;;8.60;99.90;;;;;;5005833;28;20046;-63
2023/12/18 03:12:34;;;;;;;22.58;4.03;;;8.60;99.90;;;;;;5005139;28;20481;-64
2023/12/18 03:15:00;;;;;;;19.88;3.95;;;8.60;99.90;;;;;;4972141;28;20416;-64
2023/12/18 03:17:26;;;;;;;14.63;3.15;;;8.60;99.90;;;;;;5002596;28;20145;-64
2023/12/18 03:19:57;;;;;;;19.92;3.05;;;8.60;99.90;;;;;;5005402;28;20080;-64
2023/12/18 03:22:22;;;;;;;10.65;3.13;;;8.60;99.90;;;;;;5003110;28;20253;-63
2023/12/18 03:24:48;;;;;;;14.63;3.20;;;8.50;99.90;;;;;;5005744;28;20038;-64
2023/12/18 03:27:14;;;;;;;16.25;3.15;;;8.60;99.90;;;;;;4999241;28;20046;-64
2023/12/18 03:29:39;;;;;;;16.88;3.33;;;8.50;99.90;;;;;;5007284;28;20411;-63
2023/12/18 03:32:06;;;;;;;12.55;2.85;;;8.60;99.90;;;;;;4995972;28;20065;-64
2023/12/18 03:34:31;;;;;;;13.48;2.50;;;8.60;99.90;;;;;;4998175;28;20043;-63
2023/12/18 03:36:57;;;;;;;16.48;3.78;;;8.60;99.90;;;;;;5005911;28;20046;-64
2023/12/18 03:39:23;;;;;;;14.82;2.65;;;8.50;99.90;;;;;;5004014;28;20073;-64
2023/12/18 03:41:48;;;;;;;16.77;3.22;;;8.60;99.90;;;;;;5005753;28;20045;-63
2023/12/18 03:44:14;;;;;;;14.35;3.05;;;8.60;99.90;;;;;;4994285;28;20392;-63
2023/12/18 03:46:40;;;;;;;14.73;3.47;;;8.60;99.90;;;;;;4987177;28;20491;-63
2023/12/18 03:49:06;;;;;;;14.27;3.22;;;8.60;99.90;;;;;;4989841;28;20329;-63
2023/12/18 03:51:33;;;;;;;12.48;3.15;;;8.60;99.90;;;;;;4996958;28;20046;-63
2023/12/18 03:53:58;;;;;;;11.30;3.30;;;8.60;99.90;;;;;;5005250;28;20038;-64
2023/12/18 03:56:24;;;;;;;14.50;2.42;;;8.50;99.90;;;;;;4996159;28;20127;-63
2023/12/18 03:58:50;;;;;;;12.15;3.42;;;8.60;99.90;;;;;;5019087;28;20408;-64
2023/12/18 04:01:15;;;;;;;17.15;3.90;;;8.50;99.90;;;;;;4994662;28;20037;-63
2023/12/18 04:03:41;;;;;;;13.02;3.78;;;8.50;99.90;;;;;;5015547;28;20447;-63
2023/12/18 04:06:08;;;;;;;16.90;3.80;;;8.50;99.90;;;;;;5014135;28;20041;-63
2023/12/18 04:08:33;;;;;;;14.02;2.83;;;8.50;99.90;;;;;;5005893;28;20421;-63
2023/12/18 04:10:59;;;;;;;7.35;2.58;;;8.50;99.90;;;;;;4987626;28;20057;-64
2023/12/18 04:13:25;;;;;;;11.60;3.08;;;8.40;99.90;;;;;;5003412;28;20042;-64
2023/12/18 04:15:51;;;;;;;8.35;3.60;;;8.40;99.90;;;;;;4997821;28;20046;-64
2023/12/18 04:18:17;;;;;;;20.58;4.65;;;8.40;99.90;;;;;;4997564;28;20094;-64
2023/12/18 04:20:42;;;;;;;20.38;4.05;;;8.40;99.90;;;;;;5004275;28;20522;-63
2023/12/18 04:23:08;;;;;;;17.50;4.28;;;8.40;99.90;;;;;;5009540;28;20065;-64
2023/12/18 04:25:34;;;;;;;16.65;4.22;;;8.40;99.90;;;;;;5019134;28;20045;-64
2023/12/18 04:28:00;;;;;;;17.83;5.22;;;8.30;99.90;;;;;;5019909;28;20146;-63
2023/12/18 04:30:25;;;;;;;24.83;5.68;;;8.30;99.90;;;;;;5012698;28;20046;-63
2023/12/18 04:32:52;;;;;;;19.92;4.68;;;8.30;99.90;;;;;;5006038;28;20054;-63
2023/12/18 04:35:18;;;;;;;22.50;4.65;;;8.30;99.90;;;;;;5002327;28;20045;-63
2023/12/18 04:37:44;;;;;;;17.52;5.53;;;8.30;99.90;;;;;;5003475;28;20065;-63
2023/12/18 04:40:10;;;;;;;16.00;5.00;;;8.20;99.90;;;;;;5002844;28;20096;-63
2023/12/18 04:42:36;;;;;;;15.00;4.65;;;8.20;99.90;;;;;;4986108;28;20538;-63
2023/12/18 04:45:02;;;;;;;15.10;4.60;;;8.20;99.90;;;;;;5003393;28;20038;-64
2023/12/18 04:47:27;;;;;;;19.60;4.80;;;8.20;99.90;;;;;;5002578;28;20049;-63
2023/12/18 04:49:53;;;;;;;14.15;4.95;;;8.20;99.90;;;;;;5002723;28;20117;-63
2023/12/18 04:52:19;;;;;;;19.73;4.55;;;8.20;99.90;;;;;;4983489;28;20434;-63
2023/12/18 04:54:45;;;;;;;14.20;4.40;;;8.20;99.90;;;;;;5003505;28;20100;-63
2023/12/18 04:57:11;;;;;;;15.77;4.78;;;8.20;99.90;;;;;;5002561;28;20077;-63
2023/12/18 04:59:36;;;;;;;20.30;5.22;;;8.20;99.90;;;;;;5003321;28;20595;-63
2023/12/18 05:02:02;;;;;;;16.25;4.80;;;8.20;99.90;;;;;;4997032;28;20041;-63
2023/12/18 05:04:28;;;;;;;13.85;5.15;;;8.20;99.90;;;;;;4996014;28;20053;-63
2023/12/18 05:06:53;;;;;;;11.60;4.68;;;8.20;99.90;;;;;;4998485;28;20607;-63
2023/12/18 05:09:19;;;;;;;6.15;3.25;;;8.30;99.90;;;;;;5002154;28;20100;-64
2023/12/18 05:11:45;;;;;;;18.30;4.93;;;8.30;99.90;;;;;;5004483;28;20045;-63
2023/12/18 05:14:10;;;;;;;20.40;5.55;;;8.30;99.90;;;;;;5002848;28;20096;-63
2023/12/18 05:16:36;;;;;;;16.80;4.60;;;8.30;99.90;;;;;;5002001;28;20042;-63
2023/12/18 05:19:02;;;;;;;14.85;5.13;;;8.30;99.90;;;;;;5001982;28;20121;-64
2023/12/18 05:21:28;;;;;;;11.30;4.07;;;8.30;99.90;;;;;;5002024;28;20053;-63
2023/12/18 05:23:54;;;;;;;13.85;4.20;;;8.30;99.90;;;;;;5002493;28;20116;-64
2023/12/18 05:26:20;;;;;;;14.25;5.03;;;8.30;99.90;;;;;;4984089;28;20192;-63
2023/12/18 05:28:46;;;;;;;18.73;5.93;;;8.30;99.90;;;;;;5001458;28;20053;-63
2023/12/18 05:31:12;;;;;;;19.50;5.53;;;8.30;99.90;;;;;;4984497;28;20042;-63
2023/12/18 05:33:38;;;;;;;14.68;5.30;;;8.30;99.90;;;;;;5001767;28;20065;-64
2023/12/18 05:36:04;;;;;;;17.50;4.75;;;8.30;99.90;;;;;;5000298;28;20034;-63
2023/12/18 05:38:30;;;;;;;17.27;4.97;;;8.40;99.90;;;;;;5001832;28;20053;-63
2023/12/18 05:40:56;;;;;;;17.35;5.35;;;8.40;99.90;;;;;;4984701;28;20046;-64
2023/12/18 05:43:21;;;;;;;9.27;3.35;;;8.40;99.90;;;;;;4984293;28;20046;-64
2023/12/18 05:45:47;;;;;;;11.23;4.45;;;8.40;99.90;;;;;;4981907;28;20519;-64
2023/12/18 05:48:13;;;;;;;12.80;4.85;;;8.40;99.90;;;;;;4992134;28;20077;-64
2023/12/18 05:50:38;;;;;;;20.70;5.05;;;8.40;99.90;;;;;;5000846;28;20046;-64
2023/12/18 05:53:04;;;;;;;24.20;5.07;;;8.40;99.90;;;;;;4997194;28;20488;-63
2023/12/18 05:55:31;;;;;;;17.63;5.78;;;8.40;99.90;;;;;;5001107;28;20129;-64
2023/12/18 05:57:57;;;;;;;17.85;4.50;;;8.40;99.90;;;;;;4983621;28;20100;-64
2023/12/18 06:00:22;;;;;;;17.65;5.05;;;8.40;99.90;;;;;;5001409;28;20520;-63
2023/12/18 06:02:48;;;;;;;15.80;5.22;;;8.40;99.90;;;;;;5001139;28;20038;-64
2023/12/18 06:05:14;;;;;;;14.25;5.00;;;8.40;99.90;;;;;;4998987;28;20041;-64
2023/12/18 06:07:41;;;;;;;13.90;4.97;;;8.40;99.90;;;;;;5000838;28;20042;-64
2023/12/18 06:10:08;;;;;;;18.63;5.05;;;8.40;99.90;;;;;;5006992;28;20042;-63
2023/12/18 06:12:34;;;;;;;15.70;5.10;;;8.40;99.90;;;;;;5003651;28;20072;-63
2023/12/18 06:15:00;;;;;;;14.32;5.45;;;8.40;99.90;;;;;;4997702;28;20042;-63
2023/12/18 06:17:26;;;;;;;11.35;3.65;;;8.40;99.90;;;;;;4992837;28;20084;-63
2023/12/18 06:19:53;;;;;;;17.45;6.05;;;8.40;99.90;;;;;;4966668;28;20133;-63
2023/12/18 06:22:19;;;;;;;18.75;4.50;;;8.40;99.90;;;;;;4989705;28;20045;-64
2023/12/18 06:24:45;;;;;;;23.17;6.13;;;8.40;99.90;;;;;;4999682;28;20512;-63
2023/12/18 06:27:10;;;;;;;16.95;4.30;;;8.40;99.90;;;;;;4995143;28;20587;-63
2023/12/18 06:29:36;;;;;;;21.77;6.03;;;8.40;99.90;;;;;;5001173;28;20068;-63
2023/12/18 06:32:02;;;;;;;12.48;4.38;;;8.40;99.90;;;;;;4996365;28;20081;-63
2023/12/18 06:34:28;;;;;;;14.27;4.72;;;8.40;99.90;;;;;;4977961;28;20145;-63
2023/12/18 06:36:53;;;;;;;22.23;5.68;;;8.40;99.90;;;;;;4983241;28;20476;-63
2023/12/18 06:39:19;;;;;;;16.23;4.80;;;8.40;99.90;;;;;;4993388;28;20065;-64
2023/12/18 06:41:45;;;;;;;17.58;5.63;;;8.40;99.90;;;;;;4978041;28;20347;-63
2023/12/18 06:44:10;;;;;;;24.88;6.05;;;8.40;99.90;;;;;;4978661;28;20839;-64
2023/12/18 06:46:36;;;;;;;21.00;6.13;;;8.40;99.90;;;;;;5001473;28;20046;-64
2023/12/18 06:49:02;;;;;;;17.02;5.88;;;8.40;99.90;;;;;;4997317;28;20046;-63
2023/12/18 06:51:28;;;;;;;15.88;5.03;;;8.40;99.90;;;;;;5000722;28;20050;-64
2023/12/18 06:53:54;;;;;;;13.48;3.95;;;8.40;99.90;;;;;;4999619;28;20046;-64
2023/12/18 06:56:19;;;;;;;14.52;4.70;;;8.40;99.90;;;;;;4978913;28;20125;-63
2023/12/18 06:58:45;;;;;;;10.75;4.13;;;8.40;99.90;;;;;;4973544;28;20444;-63
2023/12/18 07:01:14;;;;;;;20.00;5.30;;;8.40;99.90;;;;;;4999061;28;20038;-63
2023/12/18 07:03:40;;;;;;;8.80;4.03;;;8.40;99.90;;;;;;5001590;28;20499;-64
2023/12/18 07:06:11;;;;;;;13.50;4.15;;;8.40;99.90;;;;;;4996157;28;20094;-63
2023/12/18 07:08:37;;;;;;;30.25;6.30;;;8.40;99.90;;;;;;5001149;28;20408;-63
2023/12/18 07:11:03;;;;;;;15.10;4.07;;;8.40;99.90;;;;;;4998270;28;20058;-65
2023/12/18 07:13:29;;;;;;;17.00;5.35;;;8.50;99.90;;;;;;5003991;28;20423;-64
2023/12/18 07:15:54;;;;;;;17.05;4.93;;;8.50;99.90;;;;;;5003288;28;20052;-64
2023/12/18 07:18:20;;;;;;;19.65;5.25;;;8.40;99.90;;;;;;5003943;28;20064;-63
2023/12/18 07:20:46;;;;;;;20.98;5.57;;;8.50;99.90;;;;;;5003172;28;20074;-63
2023/12/18 07:23:11;;;;;;;20.88;6.18;;;8.50;99.90;;;;;;4998361;28;20507;-64
2023/12/18 07:25:37;;;;;;;13.05;4.40;;;8.50;99.90;;;;;;5002989;28;20049;-64
2023/12/18 07:28:09;;;;;;;6.60;2.63;;;8.50;99.90;;;;;;4985447;28;20050;-64
2023/12/18 07:30:38;;;;;;;18.88;5.63;;;8.50;99.90;;;;;;4989381;28;20368;-63
2023/12/18 07:33:04;;;;;;;26.83;6.55;;;8.50;99.90;;;;;;4982944;28;20543;-64
2023/12/18 07:35:30;;;;;;;20.55;5.00;;;8.50;99.90;;;;;;4995205;28;20514;-63
2023/12/18 07:37:56;;;;;;;29.92;5.30;;;8.50;99.90;;;;;;4999918;28;20122;-64
2023/12/18 07:40:22;;;;;;;21.52;5.47;;;8.50;99.90;;;;;;4971045;28;20125;-64
2023/12/18 07:42:48;;;;;;;23.30;5.45;;;8.50;99.90;;;;;;4990845;28;20095;-64
2023/12/18 07:45:13;;;;;;;22.05;4.50;;;8.60;99.90;;;;;;4984853;28;20054;-64
2023/12/18 07:47:41;;;;;;;17.23;5.10;;;8.60;99.90;;;;;;5003889;28;20053;-63
2023/12/18 07:50:07;;;;;;;20.52;5.72;;;8.60;99.90;;;;;;4991718;28;20045;-63
2023/12/18 07:52:33;;;;;;;21.52;5.75;;;8.60;99.90;;;;;;4988272;28;20078;-63
2023/12/18 07:54:59;;;;;;;15.65;5.15;;;8.60;99.90;;;;;;4992683;28;20046;-63
2023/12/18 07:57:25;;;;;;;17.73;4.78;;;8.60;99.90;;;;;;4976542;28;20468;-64
2023/12/18 07:59:51;;;;;;;11.82;3.55;;;8.60;99.90;;;;;;4979048;28;20068;-63
2023/12/18 08:02:16;;;;;;;17.48;4.93;;;8.60;99.90;;;;;;4981896;28;20129;-63
2023/12/18 08:04:42;;;;;;;24.15;6.18;;;8.60;99.90;;;;;;5001051;28;20096;-63
2023/12/18 08:07:08;;;;;;;23.38;4.88;;;8.60;99.90;;;;;;4999746;28;20100;-64
2023/12/18 08:09:34;;;;;;;28.23;6.22;;;8.60;99.90;;;;;;4985143;28;20054;-63
2023/12/18 08:12:00;;;;;;;22.73;5.78;;;8.60;99.90;;;;;;5001467;28;20540;-64
2023/12/18 08:14:25;;;;;;;23.33;5.72;;;8.70;99.90;;;;;;4993154;28;20038;-64
2023/12/18 08:16:51;;;;;;;29.92;5.43;;;8.60;99.90;;;;;;5002591;28;20477;-64
2023/12/18 08:19:18;;;;;;;24.27;6.40;;;8.60;99.90;;;;;;5000810;28;20399;-64
2023/12/18 08:21:44;;;;;;;20.38;5.57;;;8.60;99.90;;;;;;5004246;28;20391;-64
2023/12/18 08:24:10;;;;;;;20.40;5.30;;;8.70;99.90;;;;;;4962240;28;20051;-64
2023/12/18 08:26:36;;;;;;;19.88;6.15;;;8.70;99.90;;;;;;4977812;28;20038;-64
2023/12/18 08:29:04;;;;;;;19.65;6.45;;;8.70;99.90;;;;;;4970291;28;20145;-64
2023/12/18 08:31:30;;;;;;;25.23;6.70;;;8.60;99.90;;;;;;4976919;28;20053;-64
2023/12/18 08:33:55;;;;;;;14.10;3.67;;;8.70;99.90;;;;;;4999529;28;20084;-64
2023/12/18 08:36:21;;;;;;;22.40;6.75;;;8.60;99.90;;;;;;4999998;28;20129;-64
2023/12/18 08:38:47;;;;;;;32.58;6.53;;;8.60;99.90;;;;;;4999679;28;20492;-64
2023/12/18 08:41:13;;;;;;;17.45;5.13;;;8.60;99.90;;;;;;4982703;28;20049;-64
2023/12/18 08:43:38;;;;;;;28.30;7.10;;;8.70;99.90;;;;;;5001884;28;20451;-63
2023/12/18 08:46:04;;;;;;;15.77;5.82;;;8.60;99.90;;;;;;4992334;28;20056;-64
2023/12/18 08:48:30;;;;;;;25.67;6.70;;;8.60;99.90;;;;;;5001430;28;20049;-63
2023/12/18 08:50:56;;;;;;;24.95;6.45;;;8.60;99.90;;;;;;4999150;28;20400;-64
2023/12/18 08:53:21;;;;;;;19.15;6.53;;;8.60;99.90;;;;;;5002038;28;20480;-63
2023/12/18 08:55:47;;;;;;;14.52;6.22;;;8.60;99.90;;;;;;5002292;28;20050;-63
2023/12/18 08:58:12;;;;;;;19.65;5.45;;;8.60;99.90;;;;;;4999913;28;20046;-63
2023/12/18 09:00:38;;;;;;;23.45;5.53;;;8.60;99.90;;;;;;5000663;28;20131;-64
2023/12/18 09:03:04;;;;;;;17.08;6.53;;;8.60;99.90;;;;;;4971468;28;20043;-63
2023/12/18 09:05:30;;;;;;;37.67;7.38;;;8.60;99.90;;;;;;4999028;28;20489;-64
2023/12/18 09:07:56;;;;;;;14.20;5.40;;;8.70;99.90;;;;;;4995047;28;20108;-63
2023/12/18 09:10:22;;;;;;;19.52;6.45;;;8.70;99.90;;;;;;4998668;28;20050;-64
2023/12/18 09:12:50;;;;;;;14.90;4.72;;;8.70;99.90;;;;;;4984701;28;20050;-64
2023/12/18 09:15:16;;;;;;;23.83;7.50;;;8.70;99.90;;;;;;5002143;28;20054;-64
2023/12/18 09:17:41;;;;;;;29.25;8.73;;;8.70;99.90;;;;;;4984332;28;20057;-63
2023/12/18 09:20:08;;;;;;;16.92;6.85;;;8.70;99.90;;;;;;5000064;28;20080;-64
2023/12/18 09:22:34;;;;;;;25.20;6.32;;;8.70;99.90;;;;;;4990150;28;20053;-63
2023/12/18 09:25:00;;;;;;;12.13;5.13;;;8.70;99.90;;;;;;5000860;28;20044;-64
2023/12/18 09:27:26;;;;;;;31.05;7.55;;;8.80;99.90;;;;;;5001362;28;20033;-63
2023/12/18 09:29:51;;;;;;;24.27;6.68;;;8.80;99.90;;;;;;4980526;28;20081;-63
2023/12/18 09:32:17;;;;;;;14.38;4.80;;;8.80;99.90;;;;;;4995272;28;20049;-64
2023/12/18 09:34:43;;;;;;;24.45;7.55;;;8.80;99.90;;;;;;4987219;28;20082;-64
2023/12/18 09:37:08;;;;;;;18.75;6.68;;;8.80;99.90;;;;;;4973053;28;20041;-63
2023/12/18 09:39:34;;;;;;;20.88;7.03;;;8.80;99.90;;;;;;4996536;28;20116;-63
2023/12/18 09:42:05;;;;;;;18.38;7.70;;;8.90;99.90;;;;;;4976367;28;20458;-63
2023/12/18 09:44:34;;;;;;;18.45;6.43;;;8.90;99.90;;;;;;4969406;28;20140;-64
2023/12/18 09:47:00;;;;;;;26.67;7.10;;;8.90;99.90;;;;;;4990915;28;20444;-63
2023/12/18 09:49:26;;;;;;;21.52;7.28;;;8.90;99.90;;;;;;5000112;28;20510;-64
2023/12/18 09:52:03;;;;;;;23.67;6.13;;;8.90;99.90;;;;;;4981557;28;20053;-64
2023/12/18 09:54:30;;;;;;;16.83;6.93;;;8.90;99.90;;;;;;4984315;28;20484;-64
2023/12/18 09:56:59;;;;;;;17.55;5.65;;;9.00;99.90;;;;;;4989492;28;20053;-63
2023/12/18 09:59:25;;;;;;;18.90;7.15;;;8.90;99.90;;;;;;5001497;28;20046;-64
2023/12/18 10:01:54;;;;;;;10.30;4.43;;;8.90;99.90;;;;;;4995444;28;20054;-64
2023/12/18 10:04:20;;;;;;;26.42;8.93;;;8.90;99.90;;;;;;5003158;28;20049;-65
2023/12/18 10:06:46;;;;;;;23.27;8.50;;;8.80;99.90;;;;;;5002360;28;20038;-64
2023/12/18 10:09:15;;;;;;;16.35;7.80;;;8.80;99.90;;;;;;4982984;28;20046;-65
2023/12/18 10:11:45;;;;;;;22.13;9.68;;;8.70;99.90;;;;;;4966672;28;20536;-64
2023/12/18 10:14:15;;;;;;;17.25;7.88;;;8.70;99.90;;;;;;4988790;28;20448;-64
2023/12/18 10:16:41;;;;;;;21.90;8.40;;;8.70;99.90;;;;;;4989841;28;20496;-64
2023/12/18 10:19:08;;;;;;;14.32;6.65;;;8.70;99.90;;;;;;4983450;28;20459;-64
2023/12/18 10:21:34;;;;;;;37.75;9.70;;;8.70;99.90;;;;;;4993907;28;20062;-64
2023/12/18 10:24:01;;;;;;;21.00;6.75;;;8.70;99.90;;;;;;5002272;28;20355;-64
2023/12/18 10:26:28;;;;;;;29.15;9.43;;;8.70;99.90;;;;;;4995561;28;20115;-65
2023/12/18 10:28:54;;;;;;;20.52;9.27;;;8.70;99.90;;;;;;5004983;28;20276;-64
2023/12/18 10:31:20;;;;;;;22.50;8.38;;;8.70;99.90;;;;;;4995455;28;20326;-64
2023/12/18 10:33:46;;;;;;;30.15;9.25;;;8.70;99.90;;;;;;4996889;28;20049;-64
2023/12/18 10:36:15;;;;;;;22.50;9.70;;;8.70;99.90;;;;;;4999749;28;20092;-64
2023/12/18 10:38:41;;;;;;;28.27;9.30;;;8.70;99.90;;;;;;5018925;28;20593;-64
2023/12/18 10:41:09;;;;;;;22.00;8.70;;;8.70;99.90;;;;;;5020243;28;20045;-64
2023/12/18 10:43:36;;;;;;;35.90;10.07;;;8.70;99.90;;;;;;4996700;28;20491;-64
2023/12/18 10:46:07;;;;;;;23.10;9.10;;;8.80;99.90;;;;;;5000817;28;20425;-64
2023/12/18 10:48:33;;;;;;;25.02;9.93;;;8.80;99.90;;;;;;5012857;28;20125;-64
2023/12/18 10:51:01;;;;;;;28.73;10.15;;;8.80;99.90;;;;;;5019716;28;20046;-64
2023/12/18 10:53:27;;;;;;;19.10;7.60;;;8.80;99.90;;;;;;5012112;28;20128;-64
2023/12/18 10:55:55;;;;;;;13.60;7.95;;;8.90;99.90;;;;;;4985438;28;20042;-64
2023/12/18 10:58:21;;;;;;;26.40;10.10;;;8.90;99.90;;;;;;5006832;28;20575;-65
2023/12/18 11:00:51;;;;;;;24.50;9.00;;;8.90;99.90;;;;;;5001983;28;20050;-64
2023/12/18 11:03:18;;;;;;;12.55;7.03;;;8.90;99.90;;;;;;4998237;28;21096;-64
2023/12/18 11:05:46;;;;;;;25.67;8.80;;;8.90;99.90;;;;;;5018152;28;20045;-64
2023/12/18 11:08:12;;;;;;;21.15;7.72;;;8.90;99.90;;;;;;5012230;28;20041;-64
2023/12/18 11:10:38;;;;;;;31.55;9.25;;;8.90;99.90;;;;;;5009294;28;20576;-64
2023/12/18 11:13:39;;;;;;;21.38;8.75;;;9.00;99.90;;;;;;5004742;28;20121;-64
2023/12/18 11:16:28;;;;;;;25.60;9.07;;;9.00;99.90;;;;;;4958828;28;20485;-64
2023/12/18 11:19:09;;;;;;;31.05;10.20;;;9.00;99.90;;;;;;4978038;28;20058;-64
2023/12/18 11:21:35;;;;;;;15.02;5.78;;;9.00;99.90;;;;;;4991214;28;20038;-64
2023/12/18 11:24:03;;;;;;;29.88;9.57;;;9.10;99.90;;;;;;5001553;28;20041;-64
2023/12/18 11:26:30;;;;;;;29.20;8.65;;;9.00;99.90;;;;;;4993297;28;20031;-64
2023/12/18 11:29:16;;;;;;;18.20;7.30;;;9.00;99.90;;;;;;4972647;28;20054;-65
2023/12/18 11:31:42;;;;;;;13.32;5.88;;;9.00;99.90;;;;;;4975960;28;20171;-64
2023/12/18 11:34:10;;;;;;;32.42;10.18;;;9.00;99.90;;;;;;4980922;28;20835;-64
2023/12/18 11:36:35;;;;;;;33.63;10.00;;;9.00;99.90;;;;;;4992608;28;20467;-64
2023/12/18 11:39:03;;;;;;;22.52;8.90;;;9.00;99.90;;;;;;4999474;28;20484;-64
2023/12/18 11:41:44;;;;;;;17.00;7.40;;;9.00;99.90;;;;;;4996783;28;20375;-64
2023/12/18 11:44:14;;;;;;;38.10;9.93;;;9.10;99.90;;;;;;4999752;28;20050;-64
2023/12/18 11:46:40;;;;;;;;;;;9.00;99.90;;;;;;4976750;28;20053;-64
2023/12/18 11:49:07;;;;;;;24.13;8.88;;;9.10;99.90;;;;;;4993332;28;19987;-64
2023/12/18 11:51:34;;;;;;;16.50;7.88;;;9.10;99.90;;;;;;4962038;28;20081;-64
2023/12/18 11:54:03;;;;;;;26.98;8.45;;;9.00;99.90;;;;;;4995132;28;20592;-64
2023/12/18 11:56:39;;;;;;;22.35;9.57;;;9.10;99.90;;;;;;4998861;28;20034;-64
2023/12/18 11:59:08;;;;;;;21.35;5.28;;;9.10;99.90;;;;;;4992651;28;20049;-65
2023/12/18 12:01:34;;;;;;;28.33;9.93;;;9.10;99.90;;;;;;4995591;28;20572;-64
2023/12/18 12:04:00;;;;;;;23.17;8.82;;;9.10;99.90;;;;;;4988502;28;20074;-64
2023/12/18 12:06:26;;;;;;;26.25;9.35;;;9.10;99.90;;;;;;4982213;28;20384;-64
2023/12/18 12:08:52;;;;;;;19.92;9.40;;;9.10;99.90;;;;;;4991774;28;20049;-64
2023/12/18 12:11:19;;;;;;;11.95;5.97;;;9.10;99.90;;;;;;4999564;28;20041;-64
2023/12/18 12:13:47;;;;;;;18.85;9.05;;;9.00;99.90;;;;;;4999851;28;20160;-64
2023/12/18 12:16:19;;;;;;;17.30;9.07;;;9.10;99.90;;;;;;4993924;28;20516;-64
2023/12/18 12:18:47;;;;;;;23.10;9.25;;;9.00;99.90;;;;;;5007592;28;20057;-64
2023/12/18 12:21:17;;;;;;;28.25;9.13;;;9.10;99.90;;;;;;5010120;28;20108;-64
2023/12/18 12:23:46;;;;;;;23.38;10.60;;;9.10;99.90;;;;;;5017925;28;20049;-64
2023/12/18 12:26:13;;;;;;;21.73;9.13;;;9.10;99.90;;;;;;5015158;28;20068;-64
2023/12/18 12:28:42;;;;;;;21.67;8.15;;;9.00;99.90;;;;;;4997753;28;20509;-64
2023/12/18 12:31:07;;;;;;;22.67;7.78;;;9.10;99.90;;;;;;5014454;28;20559;-64
2023/12/18 12:33:44;;;;;;;34.80;10.25;;;9.10;99.90;;;;;;4994492;28;20050;-64
2023/12/18 12:36:14;;;;;;;29.63;9.98;;;9.10;99.90;;;;;;5012290;28;20499;-64
2023/12/18 12:38:40;;;;;;;35.22;10.02;;;9.00;99.90;;;;;;5018114;28;20052;-64
2023/12/18 12:41:06;;;;;;;14.07;8.13;;;9.10;99.90;;;;;;4990974;28;20053;-64
2023/12/18 12:43:32;;;;;;;26.60;9.30;;;9.10;99.90;;;;;;5011685;28;20104;-64